createdAt,value
2018-12-05T00:00:22.634Z,21.40
2018-12-05T00:01:22.603Z,18.20
2018-12-05T00:02:22.570Z,17.20
2018-12-05T00:03:22.537Z,22.40
2018-12-05T00:04:22.505Z,20.20
2018-12-05T00:05:22.471Z,21.50
2018-12-05T00:06:22.443Z,24.10
2018-12-05T00:07:22.406Z,18.20
2018-12-05T00:08:22.373Z,23.90
2018-12-05T00:09:22.343Z,20.90
2018-12-05T00:10:22.310Z,20.60
2018-12-05T00:11:22.276Z,26.70
2018-12-05T00:12:22.243Z,21.40
2018-12-05T00:13:22.210Z,18.90
2018-12-05T00:14:22.177Z,20.00
2018-12-05T00:15:22.145Z,15.90
2018-12-05T00:16:22.115Z,21.10
2018-12-05T00:17:22.081Z,20.40
2018-12-05T00:18:22.046Z,27.80
2018-12-05T00:19:22.014Z,26.50
2018-12-05T00:20:21.983Z,24.30
2018-12-05T00:21:21.949Z,20.60
2018-12-05T00:22:21.916Z,26.90
2018-12-05T00:23:21.886Z,21.20
2018-12-05T00:24:21.850Z,28.10
2018-12-05T00:25:21.818Z,27.10
2018-12-05T00:26:21.783Z,20.30
2018-12-05T00:27:21.750Z,23.30
2018-12-05T00:28:21.720Z,21.00
2018-12-05T00:29:21.685Z,24.10
2018-12-05T00:30:21.657Z,28.10
2018-12-05T00:31:21.619Z,26.00
2018-12-05T00:32:21.587Z,26.30
2018-12-05T00:33:21.556Z,21.50
2018-12-05T00:34:21.520Z,23.00
2018-12-05T00:35:21.487Z,26.80
2018-12-05T00:36:21.457Z,27.10
2018-12-05T00:37:21.422Z,25.70
2018-12-05T00:38:21.393Z,25.90
2018-12-05T00:39:21.355Z,19.70
2018-12-05T00:40:21.322Z,20.10
2018-12-05T00:41:21.290Z,31.90
2018-12-05T00:42:21.256Z,28.10
2018-12-05T00:43:21.225Z,24.30
2018-12-05T00:44:21.190Z,25.40
2018-12-05T00:45:21.160Z,22.60
2018-12-05T00:46:21.126Z,25.80
2018-12-05T00:47:21.091Z,27.90
2018-12-05T00:48:21.060Z,29.40
2018-12-05T00:49:21.026Z,22.50
2018-12-05T00:50:20.997Z,23.60
2018-12-05T00:51:20.960Z,28.60
2018-12-05T00:52:20.926Z,20.50
2018-12-05T00:53:20.898Z,28.30
2018-12-05T00:54:20.860Z,24.40
2018-12-05T00:55:20.829Z,23.20
2018-12-05T00:56:20.794Z,34.60
2018-12-05T00:57:20.761Z,29.40
2018-12-05T00:58:20.731Z,43.20
2018-12-05T00:59:20.695Z,29.40
2018-12-05T01:00:20.662Z,26.60
2018-12-05T01:01:20.631Z,24.70
2018-12-05T01:02:20.595Z,34.50
2018-12-05T01:03:20.562Z,24.20
2018-12-05T01:04:20.529Z,25.30
2018-12-05T01:05:20.497Z,24.50
2018-12-05T01:06:20.465Z,26.60
2018-12-05T01:07:20.430Z,29.20
2018-12-05T01:08:20.402Z,35.90
2018-12-05T01:09:20.517Z,38.60
2018-12-05T01:10:20.330Z,22.30
2018-12-05T01:11:20.297Z,32.00
2018-12-05T01:12:20.265Z,33.70
2018-12-05T01:13:20.232Z,22.50
2018-12-05T01:14:20.199Z,35.60
2018-12-05T01:15:20.166Z,24.90
2018-12-05T01:16:20.214Z,34.20
2018-12-05T01:17:20.100Z,35.30
2018-12-05T01:18:20.066Z,27.80
2018-12-05T01:19:20.032Z,26.70
2018-12-05T01:20:20.000Z,24.30
2018-12-05T01:21:19.978Z,21.90
2018-12-05T01:22:19.933Z,30.10
2018-12-05T01:23:19.906Z,20.70
2018-12-05T01:24:19.871Z,37.00
2018-12-05T01:25:19.837Z,23.00
2018-12-05T01:26:19.800Z,25.40
2018-12-05T01:27:19.768Z,24.30
2018-12-05T01:28:19.735Z,27.50
2018-12-05T01:29:19.708Z,22.60
2018-12-05T01:30:19.668Z,26.50
2018-12-05T01:31:19.636Z,27.50
2018-12-05T01:32:19.605Z,24.90
2018-12-05T01:33:19.578Z,26.70
2018-12-05T01:34:19.539Z,27.90
2018-12-05T01:35:19.503Z,23.80
2018-12-05T01:36:19.475Z,22.60
2018-12-05T01:37:19.438Z,20.40
2018-12-05T01:38:19.403Z,23.80
2018-12-05T01:39:19.371Z,21.00
2018-12-05T01:40:19.338Z,23.10
2018-12-05T01:41:19.305Z,22.20
2018-12-05T01:42:19.271Z,23.80
2018-12-05T01:43:19.238Z,25.00
2018-12-05T01:44:19.211Z,26.30
2018-12-05T01:45:19.173Z,20.40
2018-12-05T01:46:19.139Z,32.90
2018-12-05T01:47:19.106Z,21.90
2018-12-05T01:48:19.073Z,22.80
2018-12-05T01:49:19.047Z,23.50
2018-12-05T01:50:19.009Z,23.40
2018-12-05T01:51:18.974Z,28.80
2018-12-05T01:52:18.941Z,21.40
2018-12-05T01:53:18.912Z,19.80
2018-12-05T01:54:18.875Z,23.50
2018-12-05T01:55:18.845Z,17.30
2018-12-05T01:56:18.809Z,22.70
2018-12-05T01:57:18.776Z,21.00
2018-12-05T01:58:18.742Z,24.50
2018-12-05T01:59:18.727Z,24.80
2018-12-05T02:00:18.676Z,17.70
2018-12-05T02:01:18.645Z,20.00
2018-12-05T02:02:18.615Z,26.20
2018-12-05T02:03:18.577Z,27.90
2018-12-05T02:04:18.545Z,24.20
2018-12-05T02:05:18.512Z,24.90
2018-12-05T02:06:18.480Z,25.80
2018-12-05T02:07:18.447Z,28.80
2018-12-05T02:08:18.420Z,26.10
2018-12-05T02:09:18.380Z,29.80
2018-12-05T02:10:18.346Z,23.70
2018-12-05T02:11:18.313Z,29.10
2018-12-05T02:12:18.280Z,19.00
2018-12-05T02:13:18.247Z,27.60
2018-12-05T02:14:18.213Z,22.30
2018-12-05T02:15:18.182Z,27.50
2018-12-05T02:16:18.147Z,23.10
2018-12-05T02:17:18.115Z,21.80
2018-12-05T02:18:18.095Z,22.00
2018-12-05T02:19:18.062Z,25.30
2018-12-05T02:20:18.021Z,20.40
2018-12-05T02:21:17.989Z,21.50
2018-12-05T02:22:17.947Z,21.60
2018-12-05T02:23:17.922Z,27.70
2018-12-05T02:24:17.882Z,28.10
2018-12-05T02:25:17.855Z,23.10
2018-12-05T02:26:17.815Z,23.40
2018-12-05T02:27:17.785Z,20.00
2018-12-05T02:28:17.749Z,24.60
2018-12-05T02:29:17.721Z,26.10
2018-12-05T02:30:17.737Z,22.40
2018-12-05T02:31:17.662Z,24.60
2018-12-05T02:32:17.620Z,22.90
2018-12-05T02:33:17.584Z,29.20
2018-12-05T02:34:17.550Z,24.20
2018-12-05T02:35:17.517Z,25.00
2018-12-05T02:36:17.483Z,23.90
2018-12-05T02:37:17.453Z,22.20
2018-12-05T02:38:17.417Z,17.80
2018-12-05T02:39:17.386Z,22.00
2018-12-05T02:40:17.352Z,23.80
2018-12-05T02:41:17.318Z,23.40
2018-12-05T02:42:17.438Z,26.20
2018-12-05T02:43:17.293Z,29.10
2018-12-05T02:44:17.219Z,27.30
2018-12-05T02:45:17.186Z,25.60
2018-12-05T02:46:17.152Z,29.50
2018-12-05T02:47:17.119Z,20.90
2018-12-05T02:48:17.086Z,23.40
2018-12-05T02:49:17.055Z,25.20
2018-12-05T02:50:17.025Z,19.40
2018-12-05T02:51:16.985Z,25.70
2018-12-05T02:52:16.951Z,15.90
2018-12-05T02:53:16.919Z,21.80
2018-12-05T02:54:16.884Z,18.10
2018-12-05T02:55:16.851Z,25.60
2018-12-05T02:56:16.819Z,21.50
2018-12-05T02:57:16.785Z,20.20
2018-12-05T02:58:16.751Z,23.20
2018-12-05T02:59:16.719Z,20.60
2018-12-05T03:00:16.686Z,24.20
2018-12-05T03:01:16.653Z,21.30
2018-12-05T03:02:16.617Z,20.30
2018-12-05T03:03:16.586Z,24.40
2018-12-05T03:04:16.557Z,21.00
2018-12-05T03:05:16.518Z,23.80
2018-12-05T03:06:16.486Z,15.50
2018-12-05T03:07:16.452Z,25.10
2018-12-05T03:08:16.418Z,26.40
2018-12-05T03:09:16.392Z,20.30
2018-12-05T03:10:16.351Z,20.20
2018-12-05T03:11:16.318Z,21.80
2018-12-05T03:12:16.289Z,18.20
2018-12-05T03:13:16.251Z,19.50
2018-12-05T03:14:16.218Z,23.40
2018-12-05T03:15:16.200Z,19.30
2018-12-05T03:16:16.151Z,23.60
2018-12-05T03:17:16.120Z,26.90
2018-12-05T03:18:16.088Z,20.50
2018-12-05T03:19:16.051Z,21.90
2018-12-05T03:20:16.025Z,26.80
2018-12-05T03:21:15.986Z,25.00
2018-12-05T03:22:15.952Z,27.20
2018-12-05T03:23:15.918Z,24.20
2018-12-05T03:24:15.887Z,24.30
2018-12-05T03:25:15.866Z,26.90
2018-12-05T03:26:15.820Z,27.10
2018-12-05T03:27:15.788Z,23.60
2018-12-05T03:28:15.750Z,20.90
2018-12-05T03:29:15.718Z,26.70
2018-12-05T03:30:15.684Z,28.40
2018-12-05T03:31:15.671Z,20.70
2018-12-05T03:32:15.625Z,27.00
2018-12-05T03:33:15.584Z,25.50
2018-12-05T03:34:15.550Z,25.60
2018-12-05T03:35:15.518Z,24.40
2018-12-05T03:36:15.486Z,30.40
2018-12-05T03:37:15.451Z,22.90
2018-12-05T03:38:15.417Z,26.40
2018-12-05T03:39:15.384Z,21.30
2018-12-05T03:40:15.362Z,25.70
2018-12-05T03:41:15.322Z,28.20
2018-12-05T03:42:15.280Z,25.30
2018-12-05T03:43:15.247Z,22.40
2018-12-05T03:44:15.215Z,21.20
2018-12-05T03:45:15.182Z,25.60
2018-12-05T03:46:15.150Z,27.80
2018-12-05T03:47:15.266Z,26.60
2018-12-05T03:48:15.082Z,28.60
2018-12-05T03:49:15.045Z,25.10
2018-12-05T03:50:15.028Z,27.90
2018-12-05T03:51:14.979Z,30.80
2018-12-05T03:52:14.964Z,28.30
2018-12-05T03:53:14.913Z,23.60
2018-12-05T03:54:15.210Z,23.90
2018-12-05T03:55:14.844Z,27.30
2018-12-05T03:56:14.811Z,25.60
2018-12-05T03:57:14.778Z,26.20
2018-12-05T03:58:14.747Z,26.50
2018-12-05T03:59:14.719Z,29.20
2018-12-05T04:00:14.678Z,25.60
2018-12-05T04:01:14.966Z,34.40
2018-12-05T04:02:14.609Z,25.90
2018-12-05T04:03:14.575Z,30.70
2018-12-05T04:04:14.568Z,25.80
2018-12-05T04:05:14.508Z,27.80
2018-12-05T04:06:14.474Z,30.50
2018-12-05T04:07:14.764Z,27.70
2018-12-05T04:08:14.408Z,30.00
2018-12-05T04:09:14.390Z,29.30
2018-12-05T04:10:14.345Z,32.00
2018-12-05T04:11:14.297Z,28.00
2018-12-05T04:12:14.587Z,30.50
2018-12-05T04:13:14.245Z,30.20
2018-12-05T04:14:14.211Z,27.30
2018-12-05T04:15:14.166Z,36.60
2018-12-05T04:16:14.127Z,30.20
2018-12-05T04:17:14.105Z,35.30
2018-12-05T04:18:14.072Z,31.00
2018-12-05T04:19:14.025Z,37.80
2018-12-05T04:20:14.007Z,35.40
2018-12-05T04:21:13.973Z,33.70
2018-12-05T04:22:56.422Z,36.00
2018-12-05T04:23:56.050Z,35.70
2018-12-05T04:24:56.010Z,31.20
2018-12-05T04:25:56.286Z,36.10
2018-12-05T04:26:55.949Z,30.50
2018-12-05T04:27:55.899Z,38.10
2018-12-05T04:28:55.864Z,37.70
2018-12-05T04:29:55.830Z,37.80
2018-12-05T04:30:55.801Z,32.70
2018-12-05T04:31:55.763Z,36.10
2018-12-05T04:32:55.737Z,40.40
2018-12-05T04:33:55.695Z,42.60
2018-12-05T04:34:55.661Z,37.50
2018-12-05T04:35:55.945Z,36.50
2018-12-05T04:37:55.761Z,40.50
2018-12-05T04:57:11.433Z,46.80
2018-12-05T04:58:11.196Z,48.20
2018-12-05T04:59:11.153Z,45.60
2018-12-05T05:00:11.122Z,43.20
2018-12-05T05:01:11.082Z,39.50
2018-12-05T05:02:11.047Z,42.70
2018-12-05T05:03:11.163Z,40.40
2018-12-05T05:04:11.298Z,40.30
2018-12-05T05:05:11.154Z,39.90
2018-12-05T05:07:11.074Z,41.70
2018-12-05T05:08:10.837Z,39.30
2018-12-05T05:09:10.813Z,35.10
2018-12-05T05:10:10.980Z,39.30
2018-12-05T05:11:10.748Z,39.10
2018-12-05T05:12:10.707Z,38.60
2018-12-05T05:13:10.876Z,43.40
2018-12-05T05:14:10.846Z,37.80
2018-12-05T05:15:11.319Z,40.80
2018-12-05T05:16:52.906Z,40.00
2018-12-05T05:17:52.687Z,48.50
2018-12-05T05:18:52.646Z,41.80
2018-12-05T05:19:52.811Z,42.20
2018-12-05T05:20:52.567Z,33.90
2018-12-05T05:21:52.531Z,41.30
2018-12-05T05:22:52.702Z,39.40
2018-12-05T05:23:52.464Z,40.00
2018-12-05T05:24:52.430Z,39.20
2018-12-05T05:25:52.395Z,47.40
2018-12-05T05:26:52.361Z,38.40
2018-12-05T05:27:52.330Z,39.10
2018-12-05T05:28:52.301Z,37.10
2018-12-05T05:29:52.258Z,46.20
2018-12-05T05:30:52.228Z,35.70
2018-12-05T05:31:52.195Z,39.80
2018-12-05T05:32:52.158Z,39.80
2018-12-05T05:33:52.123Z,38.20
2018-12-05T05:34:52.088Z,44.70
2018-12-05T05:35:52.055Z,36.00
2018-12-05T05:36:52.021Z,42.80
2018-12-05T05:37:51.993Z,49.90
2018-12-05T05:40:58.586Z,49.10
2018-12-05T05:41:58.350Z,47.50
2018-12-05T05:42:58.520Z,50.70
2018-12-05T05:44:40.631Z,50.60
2018-12-05T05:45:40.390Z,50.00
2018-12-05T05:46:40.559Z,41.00
2018-12-05T05:47:40.321Z,45.30
2018-12-05T05:48:40.488Z,42.10
2018-12-05T05:49:40.252Z,40.10
2018-12-05T05:50:40.235Z,43.10
2018-12-05T05:51:40.703Z,41.80
2018-12-05T05:52:40.361Z,41.80
2018-12-05T05:53:40.131Z,49.50
2018-12-05T05:54:40.483Z,49.10
2018-12-05T05:55:40.062Z,47.70
2018-12-05T05:56:40.010Z,45.50
2018-12-05T05:57:40.178Z,47.90
2018-12-05T05:58:39.949Z,52.00
2018-12-05T05:59:39.909Z,50.10
2018-12-05T06:00:39.875Z,53.30
2018-12-05T06:01:39.840Z,51.30
2018-12-05T06:02:39.803Z,57.60
2018-12-05T06:03:39.772Z,55.60
2018-12-05T06:12:23.506Z,62.40
2018-12-05T06:13:23.272Z,62.30
2018-12-05T06:14:23.231Z,60.60
2018-12-05T06:15:23.197Z,64.20
2018-12-05T06:16:23.170Z,67.80
2018-12-05T06:17:23.124Z,65.70
2018-12-05T06:18:23.090Z,62.30
2018-12-05T06:19:23.054Z,61.60
2018-12-05T06:20:23.021Z,55.40
2018-12-05T06:21:22.984Z,60.30
2018-12-05T06:22:22.948Z,59.60
2018-12-05T06:23:22.914Z,67.10
2018-12-05T06:24:22.881Z,62.80
2018-12-05T06:25:22.843Z,82.30
2018-12-05T06:26:22.809Z,74.30
2018-12-05T06:27:22.775Z,74.50
2018-12-05T06:28:22.754Z,70.10
2018-12-05T06:29:22.704Z,73.40
2018-12-05T06:30:22.668Z,75.80
2018-12-05T06:31:22.634Z,83.40
2018-12-05T06:32:22.599Z,75.80
2018-12-05T06:33:22.564Z,77.00
2018-12-05T06:34:22.543Z,87.80
2018-12-05T06:35:22.709Z,70.20
2018-12-05T06:36:22.460Z,76.20
2018-12-05T06:37:22.430Z,70.80
2018-12-05T06:38:22.401Z,74.10
2018-12-05T06:39:22.355Z,81.30
2018-12-05T06:40:22.319Z,76.20
2018-12-05T06:41:22.602Z,89.70
2018-12-05T06:42:22.256Z,81.30
2018-12-05T06:44:22.182Z,76.40
2018-12-05T06:45:22.145Z,74.80
2018-12-05T06:46:22.112Z,74.20
2018-12-05T06:47:22.092Z,71.30
2018-12-05T06:48:22.044Z,76.60
2018-12-05T06:49:22.023Z,79.70
2018-12-05T06:50:21.972Z,89.40
2018-12-05T06:51:21.953Z,67.80
2018-12-05T06:52:22.119Z,61.00
2018-12-05T06:54:21.844Z,68.20
2018-12-05T06:55:21.817Z,69.60
2018-12-05T06:56:21.984Z,72.40
2018-12-05T07:31:46.869Z,79.70
2018-12-05T07:32:46.630Z,79.70
2018-12-05T07:33:46.587Z,83.50
2018-12-05T07:34:46.552Z,83.00
2018-12-05T07:35:46.513Z,86.10
2018-12-05T07:36:46.477Z,70.50
2018-12-05T07:37:46.442Z,74.60
2018-12-05T07:38:46.405Z,86.40
2018-12-05T07:39:46.371Z,84.40
2018-12-05T07:40:46.335Z,79.40
2018-12-05T07:41:46.306Z,72.50
2018-12-05T07:42:46.467Z,67.20
2018-12-05T07:43:46.228Z,72.20
2018-12-05T07:44:46.195Z,69.00
2018-12-05T07:45:46.159Z,73.30
2018-12-05T07:46:46.123Z,66.20
2018-12-05T07:47:46.092Z,58.80
2018-12-05T07:48:46.057Z,62.80
2018-12-05T07:49:46.020Z,65.30
2018-12-05T07:50:45.987Z,63.00
2018-12-05T07:51:45.954Z,62.30
2018-12-05T07:52:45.917Z,62.60
2018-12-05T07:53:45.885Z,54.90
2018-12-05T07:54:45.850Z,55.30
2018-12-05T07:55:45.816Z,58.40
2018-12-05T07:56:45.782Z,49.70
2018-12-05T07:57:45.750Z,54.10
2018-12-05T07:58:45.713Z,49.00
2018-12-05T07:59:45.691Z,44.30
2018-12-05T08:00:45.646Z,44.20
2018-12-05T08:01:45.614Z,45.30
2018-12-05T08:02:45.579Z,43.00
2018-12-05T08:03:45.547Z,42.40
2018-12-05T08:04:45.512Z,43.10
2018-12-05T08:05:45.479Z,42.40
2018-12-05T08:06:45.480Z,41.50
2018-12-05T08:07:45.418Z,36.20
2018-12-05T08:08:45.419Z,41.60
2018-12-05T08:09:45.346Z,32.00
2018-12-05T08:10:45.315Z,36.70
2018-12-05T08:11:45.282Z,33.30
2018-12-05T08:12:45.246Z,35.20
2018-12-05T08:13:45.219Z,35.20
2018-12-05T08:14:45.183Z,32.60
2018-12-05T08:15:45.146Z,31.10
2018-12-05T08:16:45.116Z,34.30
2018-12-05T08:17:45.081Z,31.30
2018-12-05T08:18:45.062Z,29.80
2018-12-05T08:19:45.016Z,28.90
2018-12-05T08:20:44.982Z,26.60
2018-12-05T08:21:44.952Z,31.10
2018-12-05T08:22:44.917Z,28.20
2018-12-05T08:23:44.887Z,27.10
2018-12-05T08:24:44.851Z,28.50
2018-12-05T08:25:45.136Z,30.90
2018-12-05T08:26:44.787Z,24.90
2018-12-05T08:27:44.756Z,24.60
2018-12-05T08:28:44.720Z,25.20
2018-12-05T08:29:44.686Z,26.00
2018-12-05T08:30:44.654Z,28.00
2018-12-05T08:31:44.635Z,25.50
2018-12-05T08:32:44.589Z,26.50
2018-12-05T08:33:44.568Z,25.20
2018-12-05T08:34:44.541Z,26.90
2018-12-05T08:35:44.509Z,22.10
2018-12-05T08:36:44.470Z,23.70
2018-12-05T08:37:44.441Z,22.50
2018-12-05T08:38:44.395Z,22.90
2018-12-05T08:39:44.366Z,22.10
2018-12-05T08:40:44.330Z,23.60
2018-12-05T08:42:44.277Z,22.40
2018-12-05T08:43:44.651Z,21.80
2018-12-05T08:44:44.201Z,23.20
2018-12-05T08:45:44.180Z,19.90
2018-12-05T08:46:44.148Z,21.80
2018-12-05T08:47:44.107Z,23.60
2018-12-05T08:48:44.092Z,26.30
2018-12-05T08:49:44.044Z,28.50
2018-12-05T08:50:44.012Z,22.40
2018-12-05T08:51:43.983Z,24.90
2018-12-05T08:52:43.947Z,19.70
2018-12-05T08:53:43.925Z,22.30
2018-12-05T08:54:43.886Z,24.10
2018-12-05T08:55:44.174Z,23.70
2018-12-05T08:56:43.837Z,23.20
2018-12-05T08:57:43.794Z,22.40
2018-12-05T08:58:43.762Z,20.50
2018-12-05T08:59:43.735Z,22.70
2018-12-05T09:00:43.697Z,23.80
2018-12-05T09:01:43.667Z,22.60
2018-12-05T09:02:43.640Z,21.10
2018-12-05T09:03:43.661Z,23.40
2018-12-05T09:04:43.574Z,20.30
2018-12-05T09:05:43.543Z,22.10
2018-12-05T09:06:43.513Z,21.20
2018-12-05T09:07:43.483Z,18.40
2018-12-05T09:08:43.450Z,24.50
2018-12-05T09:09:43.424Z,24.00
2018-12-05T09:10:43.391Z,21.80
2018-12-05T09:11:43.360Z,20.60
2018-12-05T09:12:43.337Z,21.40
2018-12-05T09:13:43.300Z,20.70
2018-12-05T09:14:43.274Z,22.30
2018-12-05T09:15:43.242Z,20.40
2018-12-05T09:16:43.207Z,21.90
2018-12-05T09:17:43.177Z,23.20
2018-12-05T09:18:43.155Z,21.50
2018-12-05T09:19:43.117Z,25.20
2018-12-05T09:20:43.091Z,26.40
2018-12-05T09:21:43.058Z,23.60
2018-12-05T09:22:43.029Z,27.10
2018-12-05T09:23:42.999Z,25.10
2018-12-05T09:24:42.979Z,28.20
2018-12-05T09:25:42.947Z,25.50
2018-12-05T09:26:42.909Z,28.90
2018-12-05T09:27:42.889Z,29.20
2018-12-05T09:28:43.063Z,26.60
2018-12-05T09:29:42.817Z,26.40
2018-12-05T09:30:42.788Z,26.90
2018-12-05T09:31:42.762Z,29.40
2018-12-05T09:32:42.747Z,27.90
2018-12-05T09:33:42.697Z,26.20
2018-12-05T09:34:42.669Z,28.20
2018-12-05T09:35:42.640Z,27.30
2018-12-05T09:36:42.609Z,25.80
2018-12-05T09:37:42.897Z,28.40
2018-12-05T09:38:42.548Z,29.80
2018-12-05T09:39:42.518Z,23.20
2018-12-05T09:40:42.488Z,28.70
2018-12-05T09:41:42.459Z,24.80
2018-12-05T09:42:42.427Z,29.00
2018-12-05T09:43:42.421Z,26.80
2018-12-05T09:44:42.369Z,24.60
2018-12-05T09:45:42.349Z,23.20
2018-12-05T09:46:42.311Z,20.70
2018-12-05T09:47:42.287Z,23.70
2018-12-05T09:48:42.254Z,21.90
2018-12-05T09:49:42.224Z,29.60
2018-12-05T09:50:42.199Z,22.50
2018-12-05T09:51:42.159Z,26.40
2018-12-05T09:52:42.133Z,24.50
2018-12-05T09:53:42.098Z,24.20
2018-12-05T09:54:42.282Z,23.70
2018-12-05T09:55:42.041Z,22.00
2018-12-05T09:56:42.008Z,26.90
2018-12-05T09:57:41.988Z,32.10
2018-12-05T09:58:41.949Z,22.30
2018-12-05T09:59:41.920Z,22.90
2018-12-05T10:00:41.887Z,25.70
2018-12-05T10:01:41.870Z,30.80
2018-12-05T10:02:41.829Z,25.20
2018-12-05T10:03:41.820Z,26.60
2018-12-05T10:04:41.774Z,26.60
2018-12-05T10:05:41.741Z,23.60
2018-12-05T10:06:41.715Z,28.90
2018-12-05T10:07:41.691Z,26.50
2018-12-05T10:08:41.653Z,28.40
2018-12-05T10:09:43.279Z,21.80
2018-12-05T10:10:41.600Z,23.10
2018-12-05T10:11:41.571Z,24.40
2018-12-05T10:12:41.835Z,24.90
2018-12-05T10:13:41.516Z,22.40
2018-12-05T10:14:41.682Z,25.00
2018-12-05T10:15:41.444Z,25.50
2018-12-05T10:16:41.427Z,26.10
2018-12-05T10:17:42.807Z,24.60
2018-12-05T10:18:41.369Z,21.60
2018-12-05T10:19:41.340Z,26.20
2018-12-05T10:20:42.117Z,24.70
2018-12-05T10:21:41.267Z,24.00
2018-12-05T10:22:41.236Z,24.40
2018-12-05T10:23:41.410Z,23.30
2018-12-05T10:24:41.187Z,29.20
2018-12-05T10:25:41.181Z,27.60
2018-12-05T10:26:41.131Z,22.80
2018-12-05T10:27:41.292Z,24.80
2018-12-05T10:28:41.059Z,26.70
2018-12-05T10:29:41.044Z,19.40
2018-12-05T10:30:41.011Z,26.30
2018-12-05T10:31:44.183Z,25.00
2018-12-05T10:32:40.955Z,28.90
2018-12-05T10:33:40.940Z,23.20
2018-12-05T10:34:40.894Z,25.60
2018-12-05T10:35:41.060Z,24.40
2018-12-05T10:36:40.829Z,25.50
2018-12-05T10:37:40.813Z,26.20
2018-12-05T10:38:44.198Z,24.60
2018-12-05T10:39:40.749Z,23.20
2018-12-05T10:40:40.703Z,26.60
2018-12-05T10:41:40.675Z,29.70
2018-12-05T10:42:40.680Z,26.10
2018-12-05T10:43:40.628Z,28.10
2018-12-05T10:44:40.653Z,26.70
2018-12-05T10:45:40.584Z,23.30
2018-12-05T10:46:40.734Z,26.60
2018-12-05T10:47:40.507Z,24.50
2018-12-05T10:48:40.705Z,25.30
2018-12-05T10:49:40.448Z,26.70
2018-12-05T10:50:40.407Z,29.10
2018-12-05T10:51:40.379Z,25.90
2018-12-05T10:52:40.348Z,25.10
2018-12-05T10:53:40.536Z,23.20
2018-12-05T10:54:40.318Z,29.40
2018-12-05T10:55:40.270Z,33.60
2018-12-05T10:56:40.266Z,28.40
2018-12-05T10:57:40.210Z,26.80
2018-12-05T10:58:40.175Z,29.70
2018-12-05T10:59:40.158Z,28.80
2018-12-05T11:00:40.109Z,26.50
2018-12-05T11:01:40.080Z,25.40
2018-12-05T11:02:40.052Z,23.70
2018-12-05T11:03:40.021Z,29.90
2018-12-05T11:04:39.994Z,27.60
2018-12-05T11:05:39.968Z,26.90
2018-12-05T11:06:39.931Z,25.10
2018-12-05T11:07:39.919Z,31.50
2018-12-05T11:08:39.889Z,28.00
2018-12-05T11:09:39.854Z,24.90
2018-12-05T11:10:40.027Z,25.60
2018-12-05T11:11:39.790Z,26.80
2018-12-05T11:12:39.755Z,23.40
2018-12-05T11:13:39.725Z,27.40
2018-12-05T11:14:39.712Z,25.90
2018-12-05T11:15:39.709Z,24.70
2018-12-05T11:16:39.656Z,28.20
2018-12-05T11:17:39.610Z,28.50
2018-12-05T11:18:39.579Z,25.50
2018-12-05T11:19:39.563Z,24.40
2018-12-05T11:20:39.723Z,28.80
2018-12-05T11:21:39.501Z,26.90
2018-12-05T11:22:39.462Z,28.10
2018-12-05T11:23:39.637Z,25.70
2018-12-05T11:24:39.425Z,24.30
2018-12-05T11:25:39.378Z,33.80
2018-12-05T11:26:39.866Z,29.70
2018-12-05T11:27:39.348Z,24.80
2018-12-05T11:28:39.303Z,31.50
2018-12-05T11:29:39.272Z,26.80
2018-12-05T11:30:39.227Z,28.90
2018-12-05T11:31:39.209Z,31.30
2018-12-05T11:32:39.174Z,26.00
2018-12-05T11:33:39.155Z,30.30
2018-12-05T11:34:39.141Z,29.60
2018-12-05T11:35:39.484Z,31.90
2018-12-05T11:36:39.257Z,31.50
2018-12-05T11:37:39.033Z,26.40
2018-12-05T11:39:39.284Z,31.90
2018-12-05T11:40:38.942Z,26.30
2018-12-05T11:41:38.918Z,28.70
2018-12-05T11:42:39.075Z,27.30
2018-12-05T11:43:38.857Z,30.90
2018-12-05T11:44:39.014Z,29.20
2018-12-05T11:45:38.790Z,26.30
2018-12-05T11:46:38.756Z,26.70
2018-12-05T11:47:38.723Z,24.60
2018-12-05T11:48:38.693Z,33.90
2018-12-05T11:49:39.012Z,34.10
2018-12-05T11:50:38.633Z,25.70
2018-12-05T11:51:38.604Z,23.00
2018-12-05T11:52:38.575Z,26.00
2018-12-05T11:53:38.543Z,30.60
2018-12-05T11:54:38.521Z,26.30
2018-12-05T11:55:38.483Z,26.90
2018-12-05T11:56:38.454Z,29.40
2018-12-05T11:57:38.424Z,24.50
2018-12-05T11:58:38.409Z,24.30
2018-12-05T11:59:38.365Z,26.50
2018-12-05T12:00:38.333Z,25.50
2018-12-05T12:01:38.307Z,27.10
2018-12-05T12:02:38.276Z,28.60
2018-12-05T12:03:38.245Z,26.70
2018-12-05T12:04:38.217Z,25.10
2018-12-05T12:05:38.190Z,27.80
2018-12-05T12:06:38.168Z,24.40
2018-12-05T12:07:38.127Z,27.80
2018-12-05T12:08:38.096Z,21.60
2018-12-05T12:09:38.067Z,25.30
2018-12-05T12:10:38.039Z,24.90
2018-12-05T12:11:38.010Z,21.70
2018-12-05T12:12:37.981Z,27.80
2018-12-05T12:13:37.959Z,23.10
2018-12-05T12:14:37.930Z,21.10
2018-12-05T12:15:37.902Z,31.00
2018-12-05T12:16:37.861Z,26.00
2018-12-05T12:17:37.838Z,28.20
2018-12-05T12:18:37.875Z,34.40
2018-12-05T12:19:37.786Z,24.40
2018-12-05T12:20:37.746Z,29.80
2018-12-05T12:21:37.716Z,34.20
2018-12-05T12:22:37.775Z,30.40
2018-12-05T12:23:37.666Z,27.60
2018-12-05T12:24:37.635Z,29.00
2018-12-05T12:25:37.601Z,33.30
2018-12-05T12:26:37.572Z,31.40
2018-12-05T12:27:37.541Z,28.90
2018-12-05T12:28:37.514Z,28.90
2018-12-05T12:29:37.483Z,33.40
2018-12-05T12:30:37.453Z,30.20
2018-12-05T12:31:37.425Z,33.50
2018-12-05T12:32:37.394Z,27.10
2018-12-05T12:33:37.364Z,28.30
2018-12-05T12:34:37.336Z,27.20
2018-12-05T12:35:37.305Z,28.40
2018-12-05T12:36:37.282Z,29.10
2018-12-05T12:37:37.245Z,28.10
2018-12-05T12:38:37.217Z,30.80
2018-12-05T12:39:37.394Z,24.90
2018-12-05T12:40:37.155Z,27.80
2018-12-05T12:41:37.127Z,24.80
2018-12-05T12:42:37.100Z,35.30
2018-12-05T12:43:37.067Z,28.60
2018-12-05T12:44:37.038Z,28.30
2018-12-05T12:45:37.011Z,26.10
2018-12-05T12:46:36.989Z,24.10
2018-12-05T12:47:36.951Z,20.90
2018-12-05T12:48:36.922Z,25.40
2018-12-05T12:49:36.892Z,32.50
2018-12-05T12:50:36.871Z,27.00
2018-12-05T12:51:36.833Z,24.90
2018-12-05T12:52:36.815Z,23.00
2018-12-05T12:53:36.774Z,22.60
2018-12-05T12:54:36.746Z,25.00
2018-12-05T12:55:36.720Z,24.40
2018-12-05T12:56:36.689Z,26.90
2018-12-05T12:57:36.663Z,26.00
2018-12-05T12:58:36.631Z,22.60
2018-12-05T12:59:36.608Z,25.80
2018-12-05T13:00:36.573Z,30.10
2018-12-05T13:01:36.549Z,23.40
2018-12-05T13:02:36.523Z,28.10
2018-12-05T13:03:36.489Z,22.30
2018-12-05T13:04:36.461Z,25.30
2018-12-05T13:05:36.436Z,26.50
2018-12-05T13:06:36.405Z,25.80
2018-12-05T13:07:36.387Z,22.40
2018-12-05T13:08:36.352Z,29.70
2018-12-05T13:09:36.330Z,25.90
2018-12-05T13:10:36.294Z,24.20
2018-12-05T13:11:36.266Z,24.40
2018-12-05T13:12:36.238Z,24.50
2018-12-05T13:13:36.212Z,28.50
2018-12-05T13:14:36.181Z,30.30
2018-12-05T13:15:36.166Z,26.10
2018-12-05T13:16:36.125Z,31.20
2018-12-05T13:17:36.099Z,25.50
2018-12-05T13:18:36.072Z,25.00
2018-12-05T13:19:36.043Z,27.80
2018-12-05T13:20:36.019Z,26.70
2018-12-05T13:21:35.985Z,24.80
2018-12-05T13:22:35.958Z,25.80
2018-12-05T13:23:35.943Z,23.70
2018-12-05T13:24:35.903Z,25.90
2018-12-05T13:25:35.879Z,23.80
2018-12-05T13:26:35.844Z,31.10
2018-12-05T13:27:35.816Z,30.60
2018-12-05T13:28:35.791Z,26.90
2018-12-05T13:29:35.774Z,30.90
2018-12-05T13:30:35.728Z,25.00
2018-12-05T13:31:35.697Z,27.70
2018-12-05T13:32:35.667Z,30.70
2018-12-05T13:33:35.639Z,25.20
2018-12-05T13:34:35.618Z,25.90
2018-12-05T13:35:35.581Z,31.90
2018-12-05T13:36:35.554Z,27.70
2018-12-05T13:37:35.529Z,29.50
2018-12-05T13:38:35.489Z,26.90
2018-12-05T13:39:35.462Z,27.40
2018-12-05T13:40:35.429Z,28.00
2018-12-05T13:41:35.401Z,33.70
2018-12-05T13:42:35.372Z,29.20
2018-12-05T13:43:35.341Z,33.00
2018-12-05T13:44:35.312Z,28.60
2018-12-05T13:45:35.282Z,29.40
2018-12-05T13:46:35.250Z,29.10
2018-12-05T13:47:35.221Z,32.00
2018-12-05T13:49:17.542Z,29.50
2018-12-05T13:50:17.307Z,25.90
2018-12-05T13:51:17.275Z,29.40
2018-12-05T13:52:17.246Z,31.80
2018-12-05T13:53:17.214Z,32.70
2018-12-05T13:54:17.182Z,29.20
2018-12-05T13:55:17.156Z,31.00
2018-12-05T13:56:17.138Z,30.60
2018-12-05T13:57:17.094Z,33.00
2018-12-05T13:58:17.062Z,30.50
2018-12-05T13:59:17.031Z,31.20
2018-12-05T14:00:17.016Z,30.40
2018-12-05T14:01:16.977Z,30.70
2018-12-05T14:02:16.951Z,31.20
2018-12-05T14:03:17.231Z,28.30